createdAt,value
2022-09-02T00:00:15.280Z,9.78
2022-09-02T00:01:15.280Z,9.78
2022-09-02T00:02:15.384Z,9.78
2022-09-02T00:03:15.379Z,9.67
2022-09-02T00:04:15.275Z,9.67
2022-09-02T00:05:15.278Z,9.5
2022-09-02T00:06:15.283Z,9.67
2022-09-02T00:07:15.293Z,9.94
2022-09-02T00:08:15.280Z,10.11
2022-09-02T00:09:15.289Z,9.78
2022-09-02T00:10:15.293Z,9.78
2022-09-02T00:11:15.306Z,9.67
2022-09-02T00:12:15.287Z,10.11
2022-09-02T00:13:15.292Z,9.78
2022-09-02T00:14:15.287Z,9.94
2022-09-02T00:15:15.286Z,9.78
2022-09-02T00:16:15.356Z,9.67
2022-09-02T00:17:15.292Z,9.67
2022-09-02T00:18:18.058Z,9.67
2022-09-02T00:19:15.288Z,9.78
2022-09-02T00:20:15.298Z,9.67
2022-09-02T00:21:15.291Z,9.67
2022-09-02T00:22:15.296Z,9.78
2022-09-02T00:23:15.289Z,9.5
2022-09-02T00:24:15.295Z,9.67
2022-09-02T00:25:15.290Z,9.22
2022-09-02T00:26:15.290Z,9.06
2022-09-02T00:27:15.292Z,9.22
2022-09-02T00:28:15.293Z,9.06
2022-09-02T00:29:15.303Z,9.22
2022-09-02T00:30:15.292Z,9.39
2022-09-02T00:31:15.355Z,9.39
2022-09-02T00:32:15.308Z,9.06
2022-09-02T00:33:15.299Z,9.06
2022-09-02T00:34:15.297Z,9.22
2022-09-02T00:35:15.297Z,9.22
2022-09-02T00:36:15.307Z,9.06
2022-09-02T00:37:15.301Z,9.06
2022-09-02T00:38:15.293Z,9.22
2022-09-02T00:39:15.301Z,9.39
2022-09-02T00:40:15.347Z,9.67
2022-09-02T00:41:15.307Z,9.39
2022-09-02T00:42:15.304Z,9.22
2022-09-02T00:43:15.297Z,9.22
2022-09-02T00:44:15.305Z,8.94
2022-09-02T00:45:15.312Z,9.22
2022-09-02T00:46:15.348Z,9.39
2022-09-02T00:47:15.298Z,9.39
2022-09-02T00:48:15.302Z,9.22
2022-09-02T00:49:15.303Z,9.5
2022-09-02T00:50:15.303Z,9.39
2022-09-02T00:51:15.310Z,9.22
2022-09-02T00:52:15.308Z,8.94
2022-09-02T00:53:15.299Z,9.22
2022-09-02T00:54:15.309Z,8.94
2022-09-02T00:55:15.312Z,8.78
2022-09-02T00:56:15.308Z,9.06
2022-09-02T00:57:15.302Z,9.06
2022-09-02T00:58:15.310Z,8.94
2022-09-02T00:59:15.306Z,8.78
2022-09-02T01:00:15.311Z,8.94
2022-09-02T01:01:15.455Z,8.94
2022-09-02T01:02:15.443Z,8.61
2022-09-02T01:03:15.302Z,8.78
2022-09-02T01:04:15.312Z,8.78
2022-09-02T01:05:15.309Z,8.94
2022-09-02T01:06:15.393Z,8.94
2022-09-02T01:07:15.304Z,9.22
2022-09-02T01:08:15.305Z,8.94
2022-09-02T01:09:15.307Z,8.78
2022-09-02T01:10:15.314Z,8.94
2022-09-02T01:11:15.313Z,8.94
2022-09-02T01:12:15.317Z,8.61
2022-09-02T01:13:15.319Z,8.78
2022-09-02T01:14:15.319Z,8.78
2022-09-02T01:15:15.320Z,8.78
2022-09-02T01:16:15.364Z,8.78
2022-09-02T01:17:15.327Z,8.78
2022-09-02T01:18:15.327Z,8.78
2022-09-02T01:19:15.335Z,8.78
2022-09-02T01:20:15.323Z,8.78
2022-09-02T01:21:15.324Z,8.94
2022-09-02T01:22:15.325Z,8.78
2022-09-02T01:23:15.344Z,8.78
2022-09-02T01:24:15.332Z,8.78
2022-09-02T01:25:15.338Z,8.78
2022-09-02T01:26:15.334Z,8.78
2022-09-02T01:27:15.353Z,8.5
2022-09-02T01:28:15.341Z,8.94
2022-09-02T01:29:15.345Z,9.22
2022-09-02T01:30:15.349Z,9.06
2022-09-02T01:31:15.397Z,9.39
2022-09-02T01:32:15.342Z,9.22
2022-09-02T01:33:15.342Z,9.22
2022-09-02T01:34:15.348Z,9.22
2022-09-02T01:35:15.353Z,8.94
2022-09-02T01:36:15.353Z,8.94
2022-09-02T01:37:15.357Z,9.06
2022-09-02T01:38:15.359Z,9.22
2022-09-02T01:39:15.360Z,8.78
2022-09-02T01:40:15.365Z,8.78
2022-09-02T01:41:15.361Z,8.61
2022-09-02T01:42:15.353Z,8.61
2022-09-02T01:43:15.354Z,7.94
2022-09-02T01:44:15.359Z,8.28
2022-09-02T01:45:15.367Z,8.39
2022-09-02T01:46:15.386Z,8.39
2022-09-02T01:47:15.363Z,8.28
2022-09-02T01:48:16.077Z,8.39
2022-09-02T01:49:15.368Z,7.94
2022-09-02T01:50:15.367Z,8.28
2022-09-02T01:51:15.366Z,8.39
2022-09-02T01:52:15.356Z,8.28
2022-09-02T01:53:15.371Z,8.28
2022-09-02T01:54:15.363Z,8.61
2022-09-02T01:55:15.372Z,8.78
2022-09-02T01:56:15.379Z,8.78
2022-09-02T01:57:15.373Z,8.94
2022-09-02T01:58:15.363Z,8.78
2022-09-02T01:59:15.376Z,8.78
2022-09-02T02:00:15.381Z,8.78
2022-09-02T02:01:15.447Z,8.61
2022-09-02T02:02:15.453Z,8.61
2022-09-02T02:03:15.383Z,8.61
2022-09-02T02:04:15.383Z,8.39
2022-09-02T02:05:15.384Z,8.28
2022-09-02T02:06:15.377Z,8.78
2022-09-02T02:07:15.392Z,8.39
2022-09-02T02:08:15.380Z,8.28
2022-09-02T02:09:15.400Z,8.5
2022-09-02T02:10:15.390Z,8.39
2022-09-02T02:11:15.386Z,8.11
2022-09-02T02:12:15.395Z,8.11
2022-09-02T02:13:15.389Z,8.11
2022-09-02T02:14:15.391Z,8.11
2022-09-02T02:15:15.387Z,7.94
2022-09-02T02:16:15.471Z,8.11
2022-09-02T02:17:15.394Z,7.94
2022-09-02T02:18:15.393Z,7.78
2022-09-02T02:19:15.399Z,7.94
2022-09-02T02:20:15.389Z,7.94
2022-09-02T02:21:15.389Z,7.94
2022-09-02T02:22:15.413Z,8.28
2022-09-02T02:23:15.395Z,8.39
2022-09-02T02:24:15.403Z,8.39
2022-09-02T02:25:15.407Z,8.78
2022-09-02T02:26:15.397Z,8.61
2022-09-02T02:27:15.415Z,8.5
2022-09-02T02:28:15.409Z,8.61
2022-09-02T02:29:15.406Z,8.78
2022-09-02T02:30:15.413Z,8.78
2022-09-02T02:31:15.433Z,8.61
2022-09-02T02:32:15.414Z,8.78
2022-09-02T02:33:15.418Z,8.78
2022-09-02T02:34:15.407Z,8.78
2022-09-02T02:35:15.417Z,8.61
2022-09-02T02:36:15.422Z,8.78
2022-09-02T02:37:15.422Z,8.78
2022-09-02T02:38:15.618Z,8.78
2022-09-02T02:39:15.420Z,8.78
2022-09-02T02:40:15.462Z,8.61
2022-09-02T02:41:15.429Z,8.61
2022-09-02T02:42:15.426Z,8.39
2022-09-02T02:43:15.428Z,8.5
2022-09-02T02:44:15.438Z,8.39
2022-09-02T02:45:15.530Z,8.5
2022-09-02T02:46:15.486Z,8.39
2022-09-02T02:47:15.436Z,7.94
2022-09-02T02:48:15.433Z,8.11
2022-09-02T02:49:15.429Z,8.28
2022-09-02T02:50:15.451Z,8.39
2022-09-02T02:51:15.445Z,8.61
2022-09-02T02:52:15.450Z,8.5
2022-09-02T02:53:15.470Z,8.61
2022-09-02T02:54:15.451Z,8.5
2022-09-02T02:55:15.447Z,8.39
2022-09-02T02:56:15.450Z,8.39
2022-09-02T02:57:15.451Z,8.28
2022-09-02T02:58:16.582Z,8.28
2022-09-02T02:59:15.452Z,8.11
2022-09-02T03:00:15.459Z,8.11
2022-09-02T03:01:15.456Z,8.28
2022-09-02T03:02:15.540Z,7.94
2022-09-02T03:03:15.461Z,8.39
2022-09-02T03:04:15.467Z,8.39
2022-09-02T03:05:15.454Z,8.5
2022-09-02T03:06:15.468Z,8.39
2022-09-02T03:07:15.461Z,8.39
2022-09-02T03:08:15.466Z,8.39
2022-09-02T03:09:15.461Z,8.5
2022-09-02T03:10:15.472Z,8.5
2022-09-02T03:11:15.474Z,8.5
2022-09-02T03:12:15.472Z,8.78
2022-09-02T03:13:15.473Z,8.78
2022-09-02T03:14:15.471Z,8.61
2022-09-02T03:15:15.466Z,8.61
2022-09-02T03:16:15.554Z,8.61
2022-09-02T03:17:15.476Z,8.61
2022-09-02T03:18:15.470Z,8.39
2022-09-02T03:19:15.478Z,8.5
2022-09-02T03:20:15.477Z,8.28
2022-09-02T03:21:15.472Z,7.94
2022-09-02T03:22:15.480Z,8.11
2022-09-02T03:23:15.471Z,8.11
2022-09-02T03:24:15.485Z,7.78
2022-09-02T03:25:15.483Z,7.94
2022-09-02T03:26:15.489Z,7.5
2022-09-02T03:27:15.473Z,7.78
2022-09-02T03:28:15.481Z,7.78
2022-09-02T03:29:15.486Z,7.67
2022-09-02T03:30:15.475Z,7.67
2022-09-02T03:31:15.518Z,7.5
2022-09-02T03:32:15.483Z,7.5
2022-09-02T03:33:15.505Z,7.78
2022-09-02T03:34:15.485Z,7.94
2022-09-02T03:35:15.489Z,7.5
2022-09-02T03:36:15.491Z,7.67
2022-09-02T03:37:15.487Z,7.39
2022-09-02T03:38:15.491Z,7.67
2022-09-02T03:39:15.491Z,7.67
2022-09-02T03:40:15.521Z,7.78
2022-09-02T03:41:15.486Z,7.94
2022-09-02T03:42:19.516Z,7.78
2022-09-02T03:43:15.505Z,7.78
2022-09-02T03:44:15.495Z,7.94
2022-09-02T03:45:15.499Z,7.94
2022-09-02T03:46:15.555Z,7.94
2022-09-02T03:47:15.500Z,7.94
2022-09-02T03:48:15.518Z,7.94
2022-09-02T03:49:15.509Z,7.94
2022-09-02T03:50:15.506Z,7.94
2022-09-02T03:51:15.505Z,7.94
2022-09-02T03:52:15.506Z,7.94
2022-09-02T03:53:18.044Z,8.11
2022-09-02T03:54:15.505Z,7.94
2022-09-02T03:55:15.509Z,7.78
2022-09-02T03:56:15.513Z,7.94
2022-09-02T03:57:15.507Z,7.78
2022-09-02T03:58:15.509Z,8.11
2022-09-02T03:59:15.513Z,8.11
2022-09-02T04:00:15.509Z,8.28
2022-09-02T04:01:15.578Z,8.28
2022-09-02T04:02:15.630Z,8.11
2022-09-02T04:03:15.657Z,8.39
2022-09-02T04:04:17.767Z,8.39
2022-09-02T04:05:15.794Z,8.39
2022-09-02T04:06:15.517Z,8.39
2022-09-02T04:07:15.519Z,7.94
2022-09-02T04:08:15.519Z,8.28
2022-09-02T04:09:15.515Z,8.11
2022-09-02T04:10:15.521Z,7.78
2022-09-02T04:11:15.518Z,7.94
2022-09-02T04:12:15.511Z,7.78
2022-09-02T04:13:15.530Z,7.67
2022-09-02T04:14:15.521Z,7.78
2022-09-02T04:15:15.532Z,7.67
2022-09-02T04:16:15.554Z,7.67
2022-09-02T04:17:15.530Z,7.94
2022-09-02T04:18:15.529Z,7.78
2022-09-02T04:19:15.526Z,7.67
2022-09-02T04:20:15.532Z,7.67
2022-09-02T04:21:15.536Z,7.5
2022-09-02T04:22:15.521Z,7.5
2022-09-02T04:23:15.534Z,7.5
2022-09-02T04:24:15.528Z,7.5
2022-09-02T04:25:15.531Z,7.67
2022-09-02T04:26:15.533Z,7.94
2022-09-02T04:27:15.537Z,7.94
2022-09-02T04:28:15.525Z,7.94
2022-09-02T04:29:15.538Z,7.94
2022-09-02T04:30:15.538Z,8.11
2022-09-02T04:31:15.573Z,7.94
2022-09-02T04:32:15.537Z,7.78
2022-09-02T04:33:15.539Z,8.28
2022-09-02T04:34:15.531Z,7.94
2022-09-02T04:35:15.534Z,8.11
2022-09-02T04:36:15.550Z,8.11
2022-09-02T04:37:15.539Z,7.94
2022-09-02T04:38:15.535Z,8.11
2022-09-02T04:39:15.544Z,7.94
2022-09-02T04:40:15.558Z,7.94
2022-09-02T04:41:15.539Z,8.28
2022-09-02T04:42:15.534Z,7.94
2022-09-02T04:43:15.555Z,7.94
2022-09-02T04:44:15.546Z,7.67
2022-09-02T04:45:15.555Z,7.78
2022-09-02T04:46:15.707Z,7.78
2022-09-02T04:47:15.547Z,7.67
2022-09-02T04:48:15.548Z,7.67
2022-09-02T04:49:15.550Z,7.67
2022-09-02T04:50:15.537Z,7.5
2022-09-02T04:51:15.559Z,7.78
2022-09-02T04:52:15.544Z,7.78
2022-09-02T04:53:15.548Z,7.78
2022-09-02T04:54:15.545Z,7.78
2022-09-02T04:55:15.558Z,7.94
2022-09-02T04:56:15.550Z,7.94
2022-09-02T04:57:15.556Z,7.94
2022-09-02T04:58:15.562Z,7.94
2022-09-02T04:59:15.551Z,7.78
2022-09-02T05:00:15.554Z,7.94
2022-09-02T05:01:15.636Z,8.11
2022-09-02T05:02:15.737Z,7.94
2022-09-02T05:03:15.564Z,7.78
2022-09-02T05:04:15.552Z,7.94
2022-09-02T05:05:15.567Z,7.94
2022-09-02T05:06:15.560Z,7.94
2022-09-02T05:07:15.563Z,8.28
2022-09-02T05:08:15.564Z,8.11
2022-09-02T05:09:15.559Z,8.11
2022-09-02T05:10:15.568Z,8.39
2022-09-02T05:11:15.579Z,8.28
2022-09-02T05:12:15.569Z,8.28
2022-09-02T05:13:15.576Z,8.5
2022-09-02T05:14:15.572Z,8.39
2022-09-02T05:15:15.565Z,8.11
2022-09-02T05:16:15.613Z,8.39
2022-09-02T05:17:15.566Z,8.28
2022-09-02T05:18:15.570Z,7.94
2022-09-02T05:19:15.570Z,7.94
2022-09-02T05:20:15.572Z,7.94
2022-09-02T05:21:15.565Z,8.11
2022-09-02T05:22:15.568Z,7.94
2022-09-02T05:23:15.587Z,8.28
2022-09-02T05:24:15.578Z,7.94
2022-09-02T05:25:15.577Z,8.11
2022-09-02T05:26:15.574Z,8.28
2022-09-02T05:27:15.580Z,7.94
2022-09-02T05:28:15.573Z,8.39
2022-09-02T05:29:15.572Z,8.28
2022-09-02T05:30:15.572Z,8.28
2022-09-02T05:31:15.647Z,8.28
2022-09-02T05:32:15.576Z,8.39
2022-09-02T05:33:15.636Z,7.94
2022-09-02T05:34:15.587Z,8.11
2022-09-02T05:35:15.574Z,8.39
2022-09-02T05:36:15.579Z,8.39
2022-09-02T05:37:15.571Z,8.39
2022-09-02T05:38:15.579Z,8.39
2022-09-02T05:39:15.576Z,8.39
2022-09-02T05:40:15.619Z,8.61
2022-09-02T05:41:15.578Z,8.61
2022-09-02T05:42:15.580Z,8.78
2022-09-02T05:43:15.579Z,8.94
2022-09-02T05:44:15.576Z,8.78
2022-09-02T05:45:16.622Z,9.06
2022-09-02T05:46:15.602Z,9.06
2022-09-02T05:47:15.578Z,8.94
2022-09-02T05:48:15.587Z,9.5
2022-09-02T05:49:15.585Z,9.22
2022-09-02T05:50:15.578Z,9.39
2022-09-02T05:51:15.585Z,9.39
2022-09-02T05:52:15.588Z,9.67
2022-09-02T05:53:15.611Z,9.67
2022-09-02T05:54:15.589Z,9.78
2022-09-02T05:55:15.586Z,9.78
2022-09-02T05:56:15.575Z,10.11
2022-09-02T05:57:15.591Z,10.22
2022-09-02T05:58:15.576Z,10.56
2022-09-02T05:59:15.588Z,11
2022-09-02T06:00:17.305Z,12.11
2022-09-02T06:01:15.583Z,13.06
2022-09-02T06:02:15.750Z,13.78
2022-09-02T06:03:15.639Z,15
2022-09-02T06:04:15.585Z,14.56
2022-09-02T06:05:15.593Z,14.28
2022-09-02T06:06:15.583Z,15.17
2022-09-02T06:07:15.587Z,14.89
2022-09-02T06:08:15.595Z,15.17
2022-09-02T06:09:15.586Z,15.39
2022-09-02T06:10:15.587Z,14.28
2022-09-02T06:11:15.595Z,14.06
2022-09-02T06:12:15.591Z,14.28
2022-09-02T06:13:15.589Z,14.06
2022-09-02T06:14:15.598Z,14.28
2022-09-02T06:15:15.617Z,14.67
2022-09-02T06:16:15.639Z,15.56
2022-09-02T06:17:15.590Z,15.56
2022-09-02T06:18:15.596Z,15.89
2022-09-02T06:19:19.602Z,15.56
2022-09-02T06:20:15.597Z,15.89
2022-09-02T06:21:15.595Z,15.72
2022-09-02T06:22:15.602Z,15.22
2022-09-02T06:23:15.590Z,15.72
2022-09-02T06:24:15.600Z,15.17
2022-09-02T06:25:15.629Z,16.06
2022-09-02T06:26:15.604Z,16.61
2022-09-02T06:27:15.593Z,16.78
2022-09-02T06:28:15.595Z,17.11
2022-09-02T06:29:15.600Z,16.94
2022-09-02T06:30:15.595Z,16.11
2022-09-02T06:31:15.634Z,15.83
2022-09-02T06:32:15.596Z,16.06
2022-09-02T06:33:15.602Z,15.89
2022-09-02T06:34:15.601Z,16.78
2022-09-02T06:35:15.610Z,16.61
2022-09-02T06:36:15.609Z,16.39
2022-09-02T06:37:15.610Z,15.39
2022-09-02T06:38:15.611Z,14.06
2022-09-02T06:39:15.608Z,13.67
2022-09-02T06:40:15.656Z,13.33
2022-09-02T06:41:15.621Z,13.33
2022-09-02T06:42:15.613Z,14.89
2022-09-02T06:43:15.615Z,16.5
2022-09-02T06:44:15.618Z,16.72
2022-09-02T06:45:15.614Z,17.67
2022-09-02T06:46:15.683Z,17.28
2022-09-02T06:47:15.618Z,17.61
2022-09-02T06:48:15.620Z,18.39
2022-09-02T06:49:15.612Z,18.22
2022-09-02T06:50:15.617Z,17.89
2022-09-02T06:51:15.617Z,17.44
2022-09-02T06:52:15.618Z,17.72
2022-09-02T06:53:15.622Z,18.11
2022-09-02T06:54:15.626Z,18.56
2022-09-02T06:55:15.632Z,17.61
2022-09-02T06:56:15.619Z,18.11
2022-09-02T06:57:15.629Z,18.56
2022-09-02T06:58:15.625Z,19.06
2022-09-02T06:59:15.626Z,19.06
2022-09-02T07:00:15.625Z,18.39
2022-09-02T07:01:15.774Z,19.06
2022-09-02T07:03:15.625Z,18.72
2022-09-02T07:04:15.627Z,18.56
2022-09-02T07:05:15.677Z,19.22
2022-09-02T07:06:15.634Z,19.22
2022-09-02T07:07:15.636Z,19.22
2022-09-02T07:08:15.629Z,19.89
2022-09-02T07:09:15.631Z,18.44
2022-09-02T07:10:15.648Z,18.89
2022-09-02T07:11:15.632Z,19.39
2022-09-02T07:12:15.628Z,19.56
2022-09-02T07:13:15.638Z,19.22
2022-09-02T07:14:15.633Z,19.39
2022-09-02T07:15:15.638Z,18.67
2022-09-02T07:16:18.412Z,18.44
2022-09-02T07:17:15.672Z,17.78
2022-09-02T07:18:15.638Z,17.28
2022-09-02T07:19:19.994Z,16.83
2022-09-02T07:20:15.638Z,16.5
2022-09-02T07:21:15.644Z,16.22
2022-09-02T07:22:18.803Z,15.72
2022-09-02T07:23:15.639Z,15.22
2022-09-02T07:24:15.646Z,15.22
2022-09-02T07:25:15.656Z,15.17
2022-09-02T07:26:15.645Z,15.72
2022-09-02T07:27:15.638Z,15.39
2022-09-02T07:28:15.644Z,15
2022-09-02T07:29:15.651Z,14.56
2022-09-02T07:30:15.645Z,15
2022-09-02T07:31:15.696Z,15.17
2022-09-02T07:32:15.655Z,14.67
2022-09-02T07:33:15.661Z,15
2022-09-02T07:34:15.660Z,15
2022-09-02T07:35:15.659Z,15.17
2022-09-02T07:36:15.660Z,15.22
2022-09-02T07:37:15.663Z,15.39
2022-09-02T07:38:15.660Z,15.39
2022-09-02T07:39:15.649Z,14.89
2022-09-02T07:40:15.691Z,15
2022-09-02T07:41:15.662Z,15.17
2022-09-02T07:42:15.693Z,15
2022-09-02T07:43:15.680Z,15.17
2022-09-02T07:44:15.666Z,15
2022-09-02T07:45:15.667Z,15.17
2022-09-02T07:46:15.696Z,15.22
2022-09-02T07:47:15.663Z,15.22
2022-09-02T07:48:15.670Z,15.39
2022-09-02T07:49:15.667Z,15.56
2022-09-02T07:50:18.782Z,15.89
2022-09-02T07:51:15.668Z,15.89
2022-09-02T07:52:15.668Z,16.06
2022-09-02T07:53:15.674Z,15.39
2022-09-02T07:54:15.673Z,15.56
2022-09-02T07:55:15.678Z,15.89
2022-09-02T07:56:15.668Z,15.89
2022-09-02T07:57:15.678Z,15.56
2022-09-02T07:58:16.102Z,15.56
2022-09-02T07:59:15.672Z,15.72
2022-09-02T08:00:15.677Z,15.89
2022-09-02T08:01:17.894Z,16.06
2022-09-02T08:02:15.700Z,16.39
2022-09-02T08:03:15.680Z,16.22
2022-09-02T08:04:15.679Z,15.89
2022-09-02T08:05:15.684Z,15.72
2022-09-02T08:06:15.679Z,16.39
2022-09-02T08:07:15.683Z,15.89
2022-09-02T08:08:15.684Z,15.56
2022-09-02T08:09:15.694Z,15.72
2022-09-02T08:10:15.692Z,15.89
2022-09-02T08:11:15.688Z,15.89
2022-09-02T08:12:16.736Z,16.06
2022-09-02T08:13:15.686Z,15.89
2022-09-02T08:14:16.730Z,16.39
2022-09-02T08:15:15.713Z,16.06
2022-09-02T08:16:15.730Z,16.39
2022-09-02T08:17:15.697Z,16.39
2022-09-02T08:18:19.108Z,16.39
2022-09-02T08:19:15.706Z,16.39
2022-09-02T08:20:15.695Z,16.83
2022-09-02T08:21:15.697Z,16.83
2022-09-02T08:22:15.702Z,16.83
2022-09-02T08:23:19.593Z,16.83
2022-09-02T08:24:15.702Z,16.83
2022-09-02T08:25:15.702Z,17
2022-09-02T08:26:15.713Z,16.83
2022-09-02T08:27:15.703Z,17
2022-09-02T08:28:15.706Z,16.83
2022-09-02T08:29:15.706Z,16.83
2022-09-02T08:30:15.707Z,16.5
2022-09-02T08:31:15.749Z,16.06
2022-09-02T08:32:15.777Z,16.5
2022-09-02T08:33:15.707Z,16.83
2022-09-02T08:34:15.714Z,15.89
2022-09-02T08:35:15.703Z,15.89
2022-09-02T08:36:15.703Z,16.39
2022-09-02T08:37:15.710Z,16.83
2022-09-02T08:38:15.707Z,17.28
2022-09-02T08:39:15.742Z,17.28
2022-09-02T08:40:15.767Z,17.17
2022-09-02T08:41:15.713Z,16.83
2022-09-02T08:42:15.716Z,17.28
2022-09-02T08:43:15.716Z,17.28
2022-09-02T08:44:15.721Z,17.28
2022-09-02T08:45:15.715Z,17.17
2022-09-02T08:46:15.779Z,17.44
2022-09-02T08:47:15.729Z,17.28
2022-09-02T08:48:15.728Z,17.78
2022-09-02T08:49:15.721Z,17.78
2022-09-02T08:50:15.720Z,18.11
2022-09-02T08:51:15.724Z,17.94
2022-09-02T08:52:17.727Z,18.28
2022-09-02T08:53:15.733Z,18.28
2022-09-02T08:54:15.725Z,18.28
2022-09-02T08:55:15.721Z,17.61
2022-09-02T08:56:15.726Z,17.28
2022-09-02T08:57:15.735Z,17
2022-09-02T08:58:15.732Z,17.44
2022-09-02T08:59:15.731Z,17.78
2022-09-02T09:00:15.744Z,17.89
2022-09-02T09:01:15.801Z,18.33
2022-09-02T09:02:16.808Z,18.39
2022-09-02T09:03:15.730Z,18.83
2022-09-02T09:04:15.737Z,18.44
2022-09-02T09:05:15.745Z,18.44
2022-09-02T09:06:15.741Z,18.44
2022-09-02T09:07:15.735Z,18.44
2022-09-02T09:08:15.840Z,18.44
2022-09-02T09:09:15.755Z,18.28
2022-09-02T09:10:15.752Z,18.78
2022-09-02T09:11:15.738Z,18.94
2022-09-02T09:12:15.752Z,18.78
2022-09-02T09:13:15.753Z,18.78
2022-09-02T09:14:15.753Z,18.94
2022-09-02T09:15:15.745Z,18.94
2022-09-02T09:16:15.827Z,18.94
2022-09-02T09:17:15.752Z,19.28
2022-09-02T09:18:15.769Z,19.28
2022-09-02T09:19:15.764Z,18.94
2022-09-02T09:20:15.764Z,17.94
2022-09-02T09:21:15.802Z,17.94
2022-09-02T09:22:15.766Z,17.67
2022-09-02T09:23:17.695Z,18.28
2022-09-02T09:24:15.764Z,18.28
2022-09-02T09:25:15.775Z,18.44
2022-09-02T09:26:15.763Z,18.61
2022-09-02T09:27:15.758Z,18.78
2022-09-02T09:28:15.776Z,17.94
2022-09-02T09:29:15.763Z,17
2022-09-02T09:30:15.951Z,17
2022-09-02T09:31:15.897Z,17.33
2022-09-02T09:32:15.774Z,17.94
2022-09-02T09:33:15.771Z,18.78
2022-09-02T09:34:15.778Z,18.94
2022-09-02T09:35:15.769Z,19.06
2022-09-02T09:36:15.784Z,19.56
2022-09-02T09:37:15.776Z,19.94
2022-09-02T09:38:15.795Z,19.94
2022-09-02T09:39:15.785Z,19.78
2022-09-02T09:40:15.810Z,19.94
2022-09-02T09:41:15.772Z,19.78
2022-09-02T09:42:15.772Z,19.94
2022-09-02T09:43:16.241Z,18.78
2022-09-02T09:44:15.779Z,19.28
2022-09-02T09:45:15.776Z,19.06
2022-09-02T09:46:15.829Z,19.44
2022-09-02T09:47:17.988Z,19.44
2022-09-02T09:48:15.774Z,19.44
2022-09-02T09:49:15.767Z,19.78
2022-09-02T09:50:15.774Z,19.44
2022-09-02T09:51:15.778Z,19.44
2022-09-02T09:52:15.770Z,19.56
2022-09-02T09:53:15.778Z,19.44
2022-09-02T09:54:15.783Z,19.06
2022-09-02T09:55:15.779Z,19.06
2022-09-02T09:56:15.791Z,18.17
2022-09-02T09:57:15.781Z,18.28
2022-09-02T09:58:15.777Z,19.44
2022-09-02T09:59:15.778Z,19.78
2022-09-02T10:00:15.791Z,19.56
2022-09-02T10:01:15.882Z,20.22
2022-09-02T10:02:15.844Z,20.33
2022-09-02T10:03:15.786Z,20.33
2022-09-02T10:04:32.586Z,20.72
2022-09-02T10:05:15.774Z,19.28
2022-09-02T10:06:15.786Z,18.94
2022-09-02T10:07:15.782Z,17.94
2022-09-02T10:08:15.778Z,17.67
2022-09-02T10:09:15.783Z,18.44
2022-09-02T10:10:15.869Z,18.78
2022-09-02T10:11:15.788Z,19.56
2022-09-02T10:12:15.785Z,20.22
2022-09-02T10:13:15.800Z,19.94
2022-09-02T10:14:15.789Z,20.56
2022-09-02T10:15:15.782Z,20.33
2022-09-02T10:16:15.828Z,20.33
2022-09-02T10:17:15.779Z,19.94
2022-09-02T10:18:15.782Z,19.06
2022-09-02T10:19:15.784Z,19.44
2022-09-02T10:20:15.848Z,20.33
2022-09-02T10:21:16.221Z,20.72
2022-09-02T10:22:15.784Z,20.83
2022-09-02T10:23:15.784Z,20.72
2022-09-02T10:24:15.785Z,20.56
2022-09-02T10:25:15.786Z,20.33
2022-09-02T10:26:15.879Z,20.72
2022-09-02T10:27:15.785Z,20.11
2022-09-02T10:28:15.788Z,20.83
2022-09-02T10:29:15.787Z,21
2022-09-02T10:30:15.820Z,21.22
2022-09-02T10:31:15.811Z,20.72
2022-09-02T10:32:15.790Z,20.83
2022-09-02T10:33:15.782Z,20.83
2022-09-02T10:34:15.789Z,20.33
2022-09-02T10:35:15.792Z,19.78
2022-09-02T10:36:19.910Z,20.11
2022-09-02T10:37:15.794Z,19.44
2022-09-02T10:38:15.790Z,19.44
2022-09-02T10:39:15.790Z,19.44
2022-09-02T10:40:16.017Z,18.94
2022-09-02T10:41:15.795Z,18.61
2022-09-02T10:42:15.798Z,18.61
2022-09-02T10:43:15.801Z,18.94
2022-09-02T10:44:15.801Z,19.78
2022-09-02T10:45:15.793Z,20.11
2022-09-02T10:46:15.832Z,21
2022-09-02T10:47:15.797Z,21.22
2022-09-02T10:48:15.811Z,20.83
2022-09-02T10:49:15.802Z,20.83
2022-09-02T10:50:15.805Z,21.22
2022-09-02T10:51:15.797Z,20.56
2022-09-02T10:52:15.814Z,21
2022-09-02T10:53:15.829Z,20.11
2022-09-02T10:54:15.805Z,19.33
2022-09-02T10:55:15.809Z,19.11
2022-09-02T10:56:15.806Z,19.11
2022-09-02T10:57:15.812Z,20.11
2022-09-02T10:58:15.808Z,20.56
2022-09-02T10:59:15.809Z,20.56
2022-09-02T11:00:15.814Z,21.56
2022-09-02T11:01:15.853Z,21.72
2022-09-02T11:02:15.806Z,22.06
2022-09-02T11:03:15.921Z,22.06
2022-09-02T11:04:15.807Z,21.56
2022-09-02T11:05:15.811Z,20.83
2022-09-02T11:06:15.821Z,20.39
2022-09-02T11:07:15.814Z,21.06
2022-09-02T11:08:15.818Z,19.94
2022-09-02T11:09:15.879Z,19.44
2022-09-02T11:10:15.821Z,20.11
2022-09-02T11:11:15.812Z,19.94
2022-09-02T11:12:15.815Z,20.56
2022-09-02T11:13:15.813Z,21.39
2022-09-02T11:14:15.817Z,21.39
2022-09-02T11:15:15.820Z,20.72
2022-09-02T11:16:15.971Z,20.56
2022-09-02T11:17:15.816Z,20.56
2022-09-02T11:18:15.904Z,21.22
2022-09-02T11:19:15.820Z,21.22
2022-09-02T11:20:15.862Z,21.06
2022-09-02T11:21:15.820Z,20.11
2022-09-02T11:22:15.832Z,20.83
2022-09-02T11:23:15.830Z,20.56
2022-09-02T11:24:15.832Z,21.06
2022-09-02T11:25:15.829Z,21.06
2022-09-02T11:26:15.830Z,20.83
2022-09-02T11:27:26.196Z,20.56
2022-09-02T11:28:15.836Z,20.11
2022-09-02T11:29:15.832Z,20.11
2022-09-02T11:30:15.839Z,20.22
2022-09-02T11:31:15.834Z,20.11
2022-09-02T11:32:15.860Z,20.56
2022-09-02T11:33:15.831Z,20.39
2022-09-02T11:34:15.832Z,21.06
2022-09-02T11:35:15.842Z,21.06
2022-09-02T11:36:15.845Z,21.56
2022-09-02T11:37:19.309Z,21.89
2022-09-02T11:38:15.838Z,20.72
2022-09-02T11:39:21.849Z,20.22
2022-09-02T11:40:33.600Z,20.11
2022-09-02T11:41:33.881Z,20.11
2022-09-02T11:42:15.869Z,20.22
2022-09-02T11:43:15.842Z,20.56
2022-09-02T11:44:15.849Z,21.06
2022-09-02T11:45:15.869Z,22.22
2022-09-02T11:46:16.297Z,22.61
2022-09-02T11:47:15.848Z,22.06
2022-09-02T11:48:15.858Z,21.89
2022-09-02T11:49:15.855Z,22.06
2022-09-02T11:50:15.855Z,22.61
2022-09-02T11:51:15.886Z,23.67
2022-09-02T11:52:15.869Z,22.94
2022-09-02T11:53:15.889Z,23.11
2022-09-02T11:54:15.859Z,22.61
2022-09-02T11:55:15.855Z,23.67
2022-09-02T11:56:16.175Z,23.11
2022-09-02T11:57:15.852Z,22.06
2022-09-02T11:58:15.860Z,21.22
2022-09-02T11:59:15.856Z,21.56
2022-09-02T12:00:15.860Z,21.89
2022-09-02T12:01:15.863Z,21.56
2022-09-02T12:02:15.854Z,22.06
2022-09-02T12:03:38.222Z,22.06
2022-09-02T12:05:15.963Z,21.72
2022-09-02T12:06:15.973Z,22.22
2022-09-02T12:07:15.868Z,22.06
2022-09-02T12:08:15.870Z,22.22
2022-09-02T12:09:15.862Z,22.61
2022-09-02T12:10:15.865Z,23.67
2022-09-02T12:11:15.871Z,24.17
2022-09-02T12:12:15.873Z,24.17
2022-09-02T12:13:15.875Z,24.67
2022-09-02T12:14:15.878Z,24.17
2022-09-02T12:15:15.866Z,22.78
2022-09-02T12:16:15.981Z,22.94
2022-09-02T12:17:15.874Z,22.39
2022-09-02T12:18:15.885Z,21.72
2022-09-02T12:19:15.874Z,21.61
2022-09-02T12:20:15.870Z,21.89
2022-09-02T12:21:16.675Z,22.39
2022-09-02T12:22:15.889Z,22.61
2022-09-02T12:23:15.871Z,22.44
2022-09-02T12:24:15.888Z,22.61
2022-09-02T12:25:15.874Z,22.61
2022-09-02T12:26:16.113Z,22.39
2022-09-02T12:27:15.886Z,23.28
2022-09-02T12:28:16.743Z,23.67
2022-09-02T12:29:15.873Z,23.83
2022-09-02T12:30:15.879Z,23.83
2022-09-02T12:31:15.972Z,23.28
2022-09-02T12:32:15.890Z,22.78
2022-09-02T12:33:15.882Z,23.28
2022-09-02T12:34:15.892Z,23.67
2022-09-02T12:35:15.883Z,22.22
2022-09-02T12:36:15.895Z,22.94
2022-09-02T12:37:15.900Z,22.06
2022-09-02T12:38:15.967Z,22.78
2022-09-02T12:39:15.894Z,22.61
2022-09-02T12:40:15.940Z,22.61
2022-09-02T12:41:15.897Z,22.78
2022-09-02T12:42:15.910Z,23.28
2022-09-02T12:43:15.897Z,23.44
2022-09-02T12:44:15.892Z,23.28
2022-09-02T12:45:15.896Z,23.28
2022-09-02T12:46:15.918Z,22.78
2022-09-02T12:47:15.900Z,22.78
2022-09-02T12:48:15.904Z,22.78
2022-09-02T12:49:15.893Z,24
2022-09-02T12:50:15.899Z,23.83
2022-09-02T12:51:15.901Z,24
2022-09-02T12:52:15.909Z,24.17
2022-09-02T12:53:19.209Z,24.33
2022-09-02T12:54:15.910Z,22.94
2022-09-02T12:55:15.912Z,22.61
2022-09-02T12:56:15.911Z,22.94
2022-09-02T12:57:15.915Z,23.67
2022-09-02T12:58:15.914Z,24.33
2022-09-02T12:59:15.914Z,24.17
2022-09-02T13:00:15.912Z,23.28
2022-09-02T13:01:15.966Z,23.83
2022-09-02T13:02:15.920Z,23.44
2022-09-02T13:03:15.920Z,23.11
2022-09-02T13:04:15.915Z,22.78
2022-09-02T13:05:15.964Z,22.94
2022-09-02T13:06:15.918Z,23.83
2022-09-02T13:07:15.924Z,23.83
2022-09-02T13:08:15.920Z,23.44